Time;durP1;ratioP1;P1;durP2;ratioP2;P2;SDS_P1;SDS_P2;PMS_P1;PMS_P2;Temp;Humidity;BMP_temperature;BMP_pressure;BME280_temperature;BME280_humidity;BME280_pressure;Samples;Min_cycle;Max_cycle;Signal;HPM_P1;HPM_P2
2021/01/07 00:02:07;;;;;;;3.07;2.40;;;;;;;7.75;100.00;96381.72;4973696;28;20201;-95
2021/01/07 00:04:34;;;;;;;3.37;3.03;;;;;;;7.72;100.00;96379.38;4974451;28;20200;-96
2021/01/07 00:07:00;;;;;;;4.27;2.53;;;;;;;7.71;100.00;96390.00;4972939;28;20235;-95
2021/01/07 00:09:28;;;;;;;4.60;2.67;;;;;;;7.72;100.00;96397.69;4973270;28;20205;-96
2021/01/07 00:11:56;;;;;;;3.60;2.40;;;;;;;7.78;100.00;96384.06;4973632;28;20201;-96
2021/01/07 00:14:23;;;;;;;3.77;2.03;;;;;;;7.68;100.00;96388.47;4975271;28;20248;-95
2021/01/07 00:16:50;;;;;;;2.50;2.30;;;;;;;7.90;100.00;96382.16;4975759;28;20197;-96
2021/01/07 00:19:17;;;;;;;3.30;2.50;;;;;;;7.75;100.00;96370.44;4976510;28;20771;-96
2021/01/07 00:21:44;;;;;;;3.07;2.40;;;;;;;7.66;100.00;96373.91;4974790;28;20205;-96
2021/01/07 00:24:11;;;;;;;4.67;2.50;;;;;;;7.75;100.00;96373.88;4974742;28;20201;-96
2021/01/07 00:26:39;;;;;;;3.87;2.80;;;;;;;7.79;100.00;96364.81;4974643;28;20212;-96
2021/01/07 00:29:07;;;;;;;3.43;2.33;;;;;;;7.85;100.00;96382.53;4973378;28;20205;-96
2021/01/07 00:31:34;;;;;;;3.57;2.73;;;;;;;7.89;100.00;96380.47;4973213;28;20619;-96
2021/01/07 00:34:01;;;;;;;3.17;2.37;;;;;;;7.90;100.00;96376.91;4973724;28;20254;-96
2021/01/07 00:36:28;;;;;;;5.13;2.33;;;;;;;7.85;100.00;96379.94;4975345;28;20205;-96
2021/01/07 00:38:55;;;;;;;3.63;1.77;;;;;;;7.88;100.00;96380.63;4975358;28;20194;-95
2021/01/07 00:41:22;;;;;;;3.63;2.47;;;;;;;7.81;100.00;96375.94;4974572;28;20678;-96
2021/01/07 00:43:50;;;;;;;4.47;2.27;;;;;;;7.77;100.00;96373.75;4972648;28;20541;-96
2021/01/07 00:46:17;;;;;;;3.40;2.50;;;;;;;7.94;100.00;96382.69;4972916;28;20560;-95
2021/01/07 00:48:44;;;;;;;2.93;2.27;;;;;;;7.65;100.00;96378.28;4973374;28;20205;-96
2021/01/07 00:51:11;;;;;;;3.73;2.47;;;;;;;7.73;100.00;96373.22;4973187;28;20224;-96
2021/01/07 00:53:38;;;;;;;3.83;2.03;;;;;;;8.05;100.00;96374.69;4973787;28;20244;-96
2021/01/07 00:56:05;;;;;;;2.97;1.63;;;;;;;8.18;100.00;96369.16;4972749;28;20284;-96
2021/01/07 00:58:32;;;;;;;5.97;2.13;;;;;;;8.27;100.00;96357.81;4973450;28;20201;-96
2021/01/07 01:01:00;;;;;;;4.60;2.00;;;;;;;8.25;100.00;96359.78;4972712;28;20221;-96
2021/01/07 01:03:27;;;;;;;3.70;1.73;;;;;;;8.12;100.00;96354.00;4971977;28;20215;-96
2021/01/07 01:05:54;;;;;;;2.57;2.00;;;;;;;8.10;100.00;96339.28;4972027;28;20200;-96
2021/01/07 01:08:21;;;;;;;3.17;2.83;;;;;;;8.00;100.00;96338.47;4972515;28;20189;-96
2021/01/07 01:10:48;;;;;;;4.93;2.77;;;;;;;8.12;100.00;96338.31;4971737;28;20206;-96
2021/01/07 01:13:15;;;;;;;4.07;2.70;;;;;;;8.09;100.00;96327.13;4972021;28;20202;-95
2021/01/07 01:15:42;;;;;;;3.87;2.13;;;;;;;8.09;100.00;96323.69;4972337;28;20255;-96
2021/01/07 01:18:11;;;;;;;3.30;2.20;;;;;;;7.98;100.00;96318.63;4972116;28;20201;-95
2021/01/07 01:20:38;;;;;;;3.50;1.80;;;;;;;8.00;100.00;96300.97;4972620;28;20221;-95
2021/01/07 01:23:06;;;;;;;4.67;2.80;;;;;;;8.08;100.00;96314.19;4973816;28;20204;-96
2021/01/07 01:25:33;;;;;;;5.70;2.13;;;;;;;7.93;100.00;96324.31;4974695;28;20236;-96
2021/01/07 01:28:00;;;;;;;1.93;1.77;;;;;;;8.02;100.00;96304.28;4971986;28;20201;-96
2021/01/07 01:30:26;;;;;;;2.77;2.33;;;;;;;8.08;100.00;96314.19;4971898;28;20193;-96
2021/01/07 01:32:53;;;;;;;4.43;2.43;;;;;;;8.04;100.00;96307.59;4971770;28;20288;-96
2021/01/07 01:35:21;;;;;;;3.33;2.13;;;;;;;8.09;100.00;96305.38;4972358;28;20205;-96
2021/01/07 01:37:48;;;;;;;3.33;2.00;;;;;;;8.11;100.00;96303.44;4973417;28;20205;-95
2021/01/07 01:40:15;;;;;;;4.83;2.43;;;;;;;8.09;100.00;96306.19;4971883;28;20228;-95
2021/01/07 01:42:42;;;;;;;4.17;3.30;;;;;;;8.17;100.00;96304.66;4971253;28;20241;-95
2021/01/07 01:45:10;;;;;;;4.80;4.17;;;;;;;8.30;100.00;96292.06;4971766;28;20235;-96
2021/01/07 01:47:37;;;;;;;3.17;2.47;;;;;;;8.31;100.00;96263.16;4971376;28;20227;-96
2021/01/07 01:50:05;;;;;;;2.60;2.20;;;;;;;8.20;100.00;96252.84;4971776;28;20193;-96
2021/01/07 01:52:34;;;;;;;4.80;2.10;;;;;;;8.10;100.00;96252.03;4972346;28;20558;-96
2021/01/07 01:55:01;;;;;;;2.87;2.20;;;;;;;8.16;100.00;96261.94;4971576;28;20288;-96
2021/01/07 01:57:31;;;;;;;3.47;2.30;;;;;;;8.20;100.00;96263.31;4971506;28;20200;-95
2021/01/07 01:59:58;;;;;;;5.73;2.70;;;;;;;8.29;100.00;96265.06;4971655;28;20236;-96
2021/01/07 02:02:25;;;;;;;6.07;2.13;;;;;;;8.16;100.00;96256.72;4971260;28;20201;-96
2021/01/07 02:04:52;;;;;;;4.37;2.20;;;;;;;8.17;100.00;96242.66;4971242;28;20193;-95
2021/01/07 02:07:21;;;;;;;4.40;2.10;;;;;;;8.13;100.00;96243.91;4971197;28;20598;-96
2021/01/07 02:09:50;;;;;;;2.57;2.30;;;;;;;8.16;100.00;96251.47;4971305;28;20201;-96
2021/01/07 02:12:17;;;;;;;2.90;2.10;;;;;;;8.13;100.00;96251.75;4971684;28;20205;-95
2021/01/07 02:14:46;;;;;;;5.00;2.00;;;;;;;8.09;100.00;96250.41;4971116;28;20197;-96
2021/01/07 02:17:14;;;;;;;2.00;1.70;;;;;;;8.13;100.00;96243.91;4971662;28;20255;-95
2021/01/07 02:19:42;;;;;;;4.00;2.07;;;;;;;8.33;100.00;96250.72;4971805;28;20307;-95
2021/01/07 02:22:10;;;;;;;3.00;1.70;;;;;;;8.18;100.00;96240.88;4972522;28;20201;-96
2021/01/07 02:24:37;;;;;;;18.57;8.93;;;;;;;8.10;100.00;96238.94;4972346;28;20205;-95
2021/01/07 02:27:07;;;;;;;17.43;6.77;;;;;;;8.25;100.00;96234.09;4972007;28;20228;-96
2021/01/07 02:29:34;;;;;;;17.80;10.53;;;;;;;8.30;100.00;96229.22;4971140;28;20251;-95
2021/01/07 02:32:01;;;;;;;25.47;14.80;;;;;;;8.11;100.00;96227.53;4971009;28;20224;-96
2021/01/07 02:34:28;;;;;;;6.63;4.20;;;;;;;8.09;100.00;96226.84;4971129;28;20292;-96
2021/01/07 02:36:56;;;;;;;3.23;2.93;;;;;;;8.17;100.00;96216.47;4971192;28;20203;-96
2021/01/07 02:39:24;;;;;;;7.67;2.93;;;;;;;8.13;100.00;96215.09;4971282;28;20304;-96
2021/01/07 02:41:52;;;;;;;3.27;2.50;;;;;;;8.01;100.00;96211.03;4970948;28;20748;-95
2021/01/07 02:44:20;;;;;;;3.47;3.20;;;;;;;8.03;100.00;96206.47;4970974;28;20205;-96
2021/01/07 02:46:47;;;;;;;5.27;2.97;;;;;;;7.97;100.00;96209.69;4972622;28;20236;-96
2021/01/07 02:49:15;;;;;;;2.80;2.60;;;;;;;8.03;100.00;96209.09;4974240;28;20232;-96
2021/01/07 02:51:41;;;;;;;5.57;2.77;;;;;;;7.94;100.00;96221.25;4974703;28;20669;-96
2021/01/07 02:54:09;;;;;;;5.73;2.23;;;;;;;7.82;100.00;96217.16;4974330;28;20673;-96
2021/01/07 02:56:37;;;;;;;2.73;1.90;;;;;;;7.72;100.00;96219.78;4974229;28;20232;-96
2021/01/07 02:59:04;;;;;;;4.80;2.30;;;;;;;7.78;100.00;96207.94;4974166;28;20288;-96
2021/01/07 03:01:32;;;;;;;5.13;2.90;;;;;;;7.78;100.00;96211.38;4973931;28;20204;-95
2021/01/07 03:03:59;;;;;;;5.03;2.83;;;;;;;7.77;100.00;96233.28;4974022;28;20204;-95
2021/01/07 03:06:26;;;;;;;3.77;2.03;;;;;;;7.75;100.00;96229.97;4975136;28;20252;-94
2021/01/07 03:08:53;;;;;;;2.97;1.80;;;;;;;7.68;100.00;96241.97;4975368;28;20704;-96
2021/01/07 03:11:20;;;;;;;5.23;2.10;;;;;;;7.71;100.00;96231.22;4980227;28;20203;-96
2021/01/07 03:13:48;;;;;;;3.37;2.47;;;;;;;7.72;100.00;96243.34;4987454;28;20216;-95
2021/01/07 03:16:15;;;;;;;3.80;2.07;;;;;;;7.66;100.00;96223.00;4991211;28;20212;-96
2021/01/07 03:18:42;;;;;;;5.40;3.60;;;;;;;7.62;100.00;96222.47;4994137;28;20208;-96
2021/01/07 03:21:10;;;;;;;6.07;2.77;;;;;;;7.78;100.00;96224.47;4994358;28;20223;-96
2021/01/07 03:23:37;;;;;;;4.20;2.60;;;;;;;7.81;100.00;96218.94;4995680;28;20229;-96
2021/01/07 03:26:04;;;;;;;5.47;2.20;;;;;;;7.73;100.00;96218.84;5254020;23;20209;-96
2021/01/07 03:28:31;;;;;;;4.90;2.13;;;;;;;7.78;100.00;96224.47;4956822;29;20191;-96
2021/01/07 03:30:59;;;;;;;3.40;2.30;;;;;;;7.85;100.00;96217.69;4955320;29;20202;-92
2021/01/07 03:33:26;;;;;;;5.83;3.93;;;;;;;7.83;100.00;96196.09;4953357;29;20278;-95
2021/01/07 03:35:53;;;;;;;4.50;2.73;;;;;;;7.89;100.00;96194.69;4953177;28;20208;-95
2021/01/07 03:38:21;;;;;;;6.10;2.70;;;;;;;7.86;100.00;96198.44;4955733;29;20202;-96
2021/01/07 03:40:48;;;;;;;4.47;2.23;;;;;;;7.85;100.00;96206.41;4953426;28;20240;-96
2021/01/07 03:43:15;;;;;;;6.73;2.80;;;;;;;7.88;100.00;96198.28;4951729;28;20225;-96
2021/01/07 03:45:42;;;;;;;4.47;1.90;;;;;;;7.70;100.00;96202.63;4949117;29;20213;-96
2021/01/07 03:48:10;;;;;;;2.83;2.10;;;;;;;7.86;100.00;96195.81;4952213;29;20220;-96
2021/01/07 03:50:38;;;;;;;2.47;2.23;;;;;;;7.72;100.00;96196.25;4953226;28;20203;-96
2021/01/07 03:53:04;;;;;;;3.80;2.87;;;;;;;7.63;100.00;96197.13;4947155;28;20203;-96
2021/01/07 03:55:32;;;;;;;13.53;9.97;;;;;;;7.48;100.00;96193.28;4952705;29;20595;-96
2021/01/07 03:57:59;;;;;;;88.67;59.10;;;;;;;7.35;100.00;96183.97;4955549;28;20199;-96
2021/01/07 04:00:26;;;;;;;66.07;44.33;;;;;;;7.28;100.00;96184.69;4955067;29;20257;-96
2021/01/07 04:02:53;;;;;;;34.73;24.63;;;;;;;7.41;100.00;96197.44;4955122;29;20203;-96
2021/01/07 04:05:21;;;;;;;39.03;23.77;;;;;;;7.32;100.00;96189.47;4950755;29;20203;-96
2021/01/07 04:07:48;;;;;;;46.13;29.17;;;;;;;7.22;100.00;96186.06;4950817;28;20206;-96
2021/01/07 04:10:15;;;;;;;32.27;19.20;;;;;;;7.02;100.00;96207.94;4951686;29;20207;-96
2021/01/07 04:12:43;;;;;;;26.47;19.23;;;;;;;6.73;100.00;96213.16;4953996;28;20206;-96
2021/01/07 04:15:10;;;;;;;17.70;11.67;;;;;;;6.59;100.00;96227.44;4947133;29;20225;-96
2021/01/07 04:20:51;;;;;;;7.33;4.67;;;;;;;6.88;100.00;96224.84;4903053;29;20241;-96
2021/01/07 04:23:18;;;;;;;11.27;5.77;;;;;;;6.86;100.00;96225.00;4940276;28;20221;-95
2021/01/07 04:25:45;;;;;;;10.27;6.90;;;;;;;6.73;100.00;96213.97;4941254;28;20209;-96
2021/01/07 04:28:12;;;;;;;30.13;21.83;;;;;;;6.66;100.00;96228.56;4942405;29;20750;-96
2021/01/07 04:30:39;;;;;;;54.93;43.10;;;;;;;6.70;100.00;96216.88;4938879;29;20713;-96
2021/01/07 04:33:06;;;;;;;20.00;17.37;;;;;;;6.13;100.00;96221.81;4942981;29;20584;-96
2021/01/07 04:35:33;;;;;;;12.47;11.17;;;;;;;6.22;100.00;96224.59;4949250;29;20209;-95
2021/01/07 04:38:01;;;;;;;10.87;9.77;;;;;;;6.21;100.00;96228.16;5176070;23;20295;-95
2021/01/07 04:40:28;;;;;;;14.40;11.50;;;;;;;6.19;100.00;96226.50;4979705;28;20221;-96
2021/01/07 04:42:55;;;;;;;16.90;13.23;;;;;;;6.32;100.00;96231.50;5081862;23;20225;-96
2021/01/07 04:45:22;;;;;;;22.07;17.77;;;;;;;6.34;100.00;96231.34;4990905;28;20633;-95
2021/01/07 04:47:49;;;;;;;17.57;13.47;;;;;;;6.50;100.00;96223.84;4995333;28;20603;-96
2021/01/07 04:50:17;;;;;;;11.10;9.83;;;;;;;6.44;100.00;96219.13;5321289;23;20229;-96
2021/01/07 04:52:44;;;;;;;16.80;13.33;;;;;;;6.33;100.00;96219.25;4976377;28;20208;-96
2021/01/07 04:55:13;;;;;;;17.20;14.53;;;;;;;6.15;100.00;96214.69;4986263;28;20231;-95
2021/01/07 04:57:49;;;;;;;25.80;15.80;;;;;;;6.00;100.00;96216.00;4981451;28;20555;-96
2021/01/07 05:00:20;;;;;;;13.93;10.10;;;;;;;6.13;100.00;96216.63;4977177;28;20261;-96
2021/01/07 05:05:34;;;;;;;15.33;13.43;;;;;;;6.08;100.00;96225.78;4973919;28;20205;-95
2021/01/07 05:08:04;;;;;;;12.60;11.30;;;;;;;6.05;100.00;96218.22;4963236;28;20277;-93
2021/01/07 05:10:33;;;;;;;30.77;22.97;;;;;;;6.22;100.00;96220.19;4963781;28;20208;-96
2021/01/07 05:13:08;;;;;;;21.97;17.93;;;;;;;6.04;100.00;96213.97;4977932;28;20201;-94
2021/01/07 05:15:40;;;;;;;16.33;14.57;;;;;;;6.06;100.00;96207.66;5147892;23;20237;-96
2021/01/07 05:18:07;;;;;;;13.43;10.20;;;;;;;5.88;100.00;96202.19;4983724;28;20213;-96
2021/01/07 05:20:34;;;;;;;14.37;9.23;;;;;;;5.50;100.00;96210.66;4983732;28;20229;-96
2021/01/07 05:23:03;;;;;;;11.57;9.53;;;;;;;5.54;100.00;96206.00;4985675;28;20205;-96
2021/01/07 05:25:32;;;;;;;13.50;11.50;;;;;;;5.64;100.00;96206.88;4983574;28;20265;-96
2021/01/07 05:28:00;;;;;;;14.83;11.10;;;;;;;5.89;100.00;96201.25;4981059;28;20209;-96
2021/01/07 05:30:28;;;;;;;32.50;18.47;;;;;;;5.93;100.00;96212.28;4980956;28;20205;-96
2021/01/07 05:33:01;;;;;;;30.40;21.43;;;;;;;5.85;100.00;96212.88;4983567;28;20197;-96
2021/01/07 05:35:28;;;;;;;28.47;19.70;;;;;;;5.79;100.00;96226.47;4986523;28;20190;-96
2021/01/07 05:38:00;;;;;;;22.47;15.90;;;;;;;5.71;100.00;96227.13;4990973;28;20205;-96
2021/01/07 05:40:27;;;;;;;22.93;17.50;;;;;;;5.42;100.00;96223.50;4985964;28;20270;-96
2021/01/07 05:42:59;;;;;;;24.63;19.07;;;;;;;5.60;100.00;96228.94;4983801;28;20592;-96
2021/01/07 05:45:37;;;;;;;25.43;19.33;;;;;;;5.43;100.00;96225.97;4983205;28;20190;-96
2021/01/07 05:48:05;;;;;;;19.43;17.30;;;;;;;5.67;100.00;96214.44;4985651;28;20189;-96
2021/01/07 05:50:38;;;;;;;15.73;12.50;;;;;;;5.43;100.00;96215.53;4987604;28;20197;-95
2021/01/07 05:53:05;;;;;;;14.03;11.90;;;;;;;5.19;100.00;96217.59;4986722;28;20190;-96
2021/01/07 05:55:32;;;;;;;12.53;10.63;;;;;;;5.33;100.00;96214.66;4986242;28;20193;-96
2021/01/07 05:58:02;;;;;;;12.23;11.00;;;;;;;5.30;100.00;96224.50;4985959;28;20200;-96
2021/01/07 06:00:31;;;;;;;14.13;12.53;;;;;;;5.51;100.00;96238.38;4987060;28;20225;-96
2021/01/07 06:03:00;;;;;;;13.93;11.33;;;;;;;5.73;100.00;96240.00;4982475;28;20282;-95
2021/01/07 06:05:28;;;;;;;21.17;15.20;;;;;;;5.46;100.00;96241.34;4982315;28;20190;-96
2021/01/07 06:07:57;;;;;;;18.63;14.73;;;;;;;5.32;100.00;96246.06;4979710;28;20200;-96
2021/01/07 06:10:25;;;;;;;14.80;13.30;;;;;;;5.65;100.00;96251.09;4978985;28;20205;-96
2021/01/07 06:12:53;;;;;;;26.07;21.17;;;;;;;5.47;100.00;96245.63;4982764;28;20197;-96
2021/01/07 06:15:23;;;;;;;28.70;20.40;;;;;;;5.59;100.00;96237.75;4984826;28;20221;-96
2021/01/07 06:17:51;;;;;;;40.70;34.07;;;;;;;5.27;100.00;96251.66;4987911;28;20205;-96
2021/01/07 06:20:19;;;;;;;19.23;17.23;;;;;;;5.52;100.00;96252.25;4976801;28;20226;-96
2021/01/07 06:22:48;;;;;;;15.00;12.60;;;;;;;5.43;100.00;96256.44;4975066;29;20194;-96
2021/01/07 06:25:16;;;;;;;12.23;11.07;;;;;;;5.64;100.00;96261.63;4974771;29;20202;-96
2021/01/07 06:27:47;;;;;;;30.77;25.20;;;;;;;5.63;100.00;96260.81;4973145;29;20201;-96
2021/01/07 06:30:37;;;;;;;51.77;42.43;;;;;;;5.77;100.00;96264.88;4971852;28;20202;-96
2021/01/07 06:33:10;;;;;;;49.83;43.40;;;;;;;5.62;100.00;96253.13;4974064;28;20194;-96
2021/01/07 06:35:46;;;;;;;17.93;15.73;;;;;;;5.73;100.00;96255.66;4977580;28;20202;-96
2021/01/07 06:38:15;;;;;;;22.17;19.83;;;;;;;6.04;100.00;96261.75;4977908;28;20641;-96
2021/01/07 06:40:47;;;;;;;19.37;16.83;;;;;;;5.99;100.00;96258.69;4975875;28;20222;-96
2021/01/07 06:43:18;;;;;;;15.07;13.50;;;;;;;6.13;100.00;96249.69;4973378;29;20190;-96
2021/01/07 06:45:54;;;;;;;13.77;12.33;;;;;;;6.02;100.00;96248.00;4975032;29;20286;-96
2021/01/07 06:48:31;;;;;;;11.63;10.53;;;;;;;6.04;100.00;96253.91;5014336;23;20216;-96
2021/01/07 06:51:00;;;;;;;12.93;10.43;;;;;;;5.97;100.00;96251.97;4992671;28;20181;-96
2021/01/07 06:53:28;;;;;;;23.43;18.23;;;;;;;6.07;100.00;96243.22;4993623;28;20654;-96
2021/01/07 06:56:19;;;;;;;16.57;11.40;;;;;;;6.15;100.00;96255.59;4990719;28;20201;-96
2021/01/07 06:58:50;;;;;;;13.63;11.53;;;;;;;6.28;100.00;96271.88;4986494;28;20665;-96
2021/01/07 07:01:19;;;;;;;12.53;11.37;;;;;;;5.98;100.00;96277.91;4988721;28;20242;-96
2021/01/07 07:03:49;;;;;;;15.33;13.37;;;;;;;6.05;100.00;96286.88;4985416;28;20197;-96
2021/01/07 07:06:18;;;;;;;23.97;17.17;;;;;;;6.08;100.00;96289.22;4988538;28;20190;-96
2021/01/07 07:08:49;;;;;;;23.10;18.83;;;;;;;6.14;100.00;96296.53;4987256;28;20232;-96
2021/01/07 07:11:33;;;;;;;28.30;22.63;;;;;;;6.15;100.00;96313.03;4987954;28;20201;-96
2021/01/07 07:14:04;;;;;;;29.83;24.60;;;;;;;6.43;100.00;96320.13;4973888;28;20182;-96
2021/01/07 07:16:37;;;;;;;25.27;21.03;;;;;;;6.41;100.00;96322.06;4976079;28;20202;-96
2021/01/07 07:19:07;;;;;;;28.90;21.37;;;;;;;6.67;100.00;96326.81;4972749;29;20193;-96
2021/01/07 07:21:35;;;;;;;18.80;16.40;;;;;;;6.96;100.00;96329.50;4973179;29;20249;-96
2021/01/07 07:24:10;;;;;;;21.80;19.17;;;;;;;7.09;100.00;96318.81;4973907;28;20226;-96
2021/01/07 07:26:40;;;;;;;24.00;15.13;;;;;;;7.33;100.00;96314.00;4971683;28;20201;-96
2021/01/07 07:29:09;;;;;;;17.87;15.97;;;;;;;7.46;100.00;96312.91;4967392;28;20202;-96
2021/01/07 07:31:42;;;;;;;22.27;16.13;;;;;;;7.37;100.00;96309.31;4962725;29;20575;-96
2021/01/07 07:34:10;;;;;;;25.90;20.67;;;;;;;7.69;100.00;96311.66;4965181;28;20210;-96
2021/01/07 07:36:38;;;;;;;22.77;18.73;;;;;;;7.72;100.00;96316.59;4969495;29;20209;-96
2021/01/07 07:39:07;;;;;;;20.13;14.47;;;;;;;7.71;100.00;96330.66;4967696;29;20194;-96
2021/01/07 07:41:40;;;;;;;18.10;14.97;;;;;;;7.81;100.00;96333.25;4961438;28;20293;-96
2021/01/07 07:44:07;;;;;;;20.27;16.87;;;;;;;7.61;100.00;96327.22;4961083;29;20190;-96
2021/01/07 07:46:36;;;;;;;18.77;14.67;;;;;;;7.88;100.00;96317.81;4963818;28;20222;-96
2021/01/07 07:49:06;;;;;;;17.73;15.23;;;;;;;7.76;100.00;96312.75;4964033;28;20233;-96
2021/01/07 07:51:33;;;;;;;12.77;10.90;;;;;;;7.79;100.00;96320.34;4959806;29;20198;-96
2021/01/07 07:54:08;;;;;;;13.97;12.00;;;;;;;7.84;100.00;96288.50;4956635;28;20575;-96
2021/01/07 07:56:35;;;;;;;13.17;11.10;;;;;;;8.16;100.00;96282.88;4958312;28;20208;-96
2021/01/07 07:59:05;;;;;;;11.17;9.97;;;;;;;8.20;100.00;96286.03;4960105;29;20205;-96
2021/01/07 08:01:39;;;;;;;17.00;13.57;;;;;;;8.25;100.00;96287.28;4956727;28;20226;-95
2021/01/07 08:04:11;;;;;;;18.53;15.17;;;;;;;8.38;100.00;96281.72;4954010;28;20668;-95
2021/01/07 08:06:38;;;;;;;23.43;16.47;;;;;;;8.55;100.00;96282.75;4954954;29;20637;-96
2021/01/07 08:09:07;;;;;;;24.87;18.20;;;;;;;8.91;100.00;96283.66;4955718;29;20249;-96
2021/01/07 08:11:48;;;;;;;15.63;11.80;;;;;;;8.47;100.00;96280.03;4960784;28;20655;-96
2021/01/07 08:14:22;;;;;;;13.27;10.43;;;;;;;8.24;100.00;96275.16;4967427;28;20292;-96
2021/01/07 08:16:54;;;;;;;12.90;11.60;;;;;;;8.37;100.00;96274.00;4977273;28;20190;-96
2021/01/07 08:19:24;;;;;;;13.97;10.10;;;;;;;8.57;100.00;96283.44;4976267;28;20220;-95
2021/01/07 08:21:53;;;;;;;26.17;20.30;;;;;;;9.11;100.00;96283.53;4975741;28;20205;-95
2021/01/07 08:24:22;;;;;;;24.77;21.77;;;;;;;9.71;100.00;96288.97;4973517;28;20231;-96
2021/01/07 08:27:03;;;;;;;13.73;12.33;;;;;;;10.19;100.00;96277.97;4972867;28;20259;-95
2021/01/07 08:29:34;;;;;;;13.40;10.93;;;;;;;10.35;100.00;96290.38;4972737;28;20303;-95
2021/01/07 08:32:03;;;;;;;14.43;10.07;;;;;;;9.19;100.00;96281.81;4972547;28;20283;-96
2021/01/07 08:34:32;;;;;;;13.53;9.97;;;;;;;9.09;100.00;96281.06;4972502;28;20247;-96
2021/01/07 08:37:10;;;;;;;12.33;8.73;;;;;;;8.82;100.00;96274.88;4973201;28;20201;-96
2021/01/07 08:39:38;;;;;;;9.60;8.13;;;;;;;8.75;100.00;96271.19;4973369;28;20205;-96
2021/01/07 08:42:06;;;;;;;12.60;9.23;;;;;;;8.63;100.00;96269.78;4972708;28;20255;-95
2021/01/07 08:44:33;;;;;;;14.20;10.97;;;;;;;8.79;100.00;96258.63;4971909;28;20212;-96
2021/01/07 08:47:01;;;;;;;17.50;13.13;;;;;;;8.75;100.00;96254.66;4973499;28;20250;-95
2021/01/07 08:49:28;;;;;;;13.03;11.27;;;;;;;8.89;100.00;96266.44;4972873;28;20233;-96
2021/01/07 08:52:00;;;;;;;12.47;11.17;;;;;;;9.25;100.00;96267.28;4973121;28;20204;-95
2021/01/07 08:54:27;;;;;;;14.53;13.03;;;;;;;9.09;100.00;96281.06;4972417;28;20197;-96
2021/01/07 08:56:55;;;;;;;16.93;13.03;;;;;;;8.77;100.00;96279.75;4972599;28;20203;-95
2021/01/07 08:59:31;;;;;;;12.97;11.67;;;;;;;8.82;100.00;96279.31;4973128;28;20201;-94
2021/01/07 09:02:00;;;;;;;15.50;12.43;;;;;;;9.04;100.00;96265.78;4972617;28;20226;-96
2021/01/07 09:04:35;;;;;;;15.73;13.63;;;;;;;9.36;100.00;96255.75;4972463;28;20212;-96
2021/01/07 09:07:05;;;;;;;18.50;14.77;;;;;;;9.72;100.00;96257.31;4972713;28;20204;-95
2021/01/07 09:09:40;;;;;;;16.50;14.50;;;;;;;9.81;100.00;96255.59;4973911;28;20310;-96
2021/01/07 09:12:09;;;;;;;14.60;12.17;;;;;;;10.02;100.00;96247.34;4961707;28;20208;-96
2021/01/07 09:14:49;;;;;;;15.60;13.73;;;;;;;10.30;100.00;96231.44;4958948;28;20201;-96
2021/01/07 09:17:17;;;;;;;13.20;11.90;;;;;;;10.63;100.00;96243.72;4953654;28;20277;-95
2021/01/07 09:19:44;;;;;;;15.83;10.90;;;;;;;10.58;100.00;96243.38;4957374;28;20581;-96
2021/01/07 09:22:21;;;;;;;11.37;10.27;;;;;;;10.92;100.00;96240.66;4961834;28;20201;-95
2021/01/07 09:24:48;;;;;;;10.17;9.17;;;;;;;10.97;100.00;96240.16;4963384;28;20171;-96
2021/01/07 09:27:17;;;;;;;9.53;8.47;;;;;;;11.36;100.00;96240.41;4958307;28;20232;-96
2021/01/07 09:29:44;;;;;;;9.93;8.50;;;;;;;11.08;100.00;96236.41;4957018;28;20230;-96
2021/01/07 09:32:12;;;;;;;10.87;8.17;;;;;;;10.67;100.00;96231.09;4955490;28;20280;-96
2021/01/07 09:34:40;;;;;;;8.03;7.10;;;;;;;10.62;100.00;96235.97;4957966;28;20206;-96
2021/01/07 09:37:11;;;;;;;10.27;5.53;;;;;;;10.34;100.00;96230.13;4960325;28;20212;-96
2021/01/07 09:39:39;;;;;;;9.47;4.53;;;;;;;10.25;100.00;96237.09;4958724;28;20190;-96
2021/01/07 09:42:06;;;;;;;7.40;3.87;;;;;;;10.31;100.00;96236.50;4959088;29;20194;-96
2021/01/07 09:44:34;;;;;;;13.03;9.77;;;;;;;10.50;100.00;96232.00;4957292;28;20201;-95
2021/01/07 09:47:03;;;;;;;6.13;4.80;;;;;;;10.35;100.00;96232.59;4963338;28;20213;-96
2021/01/07 09:49:30;;;;;;;6.53;5.27;;;;;;;10.13;100.00;96223.44;4961945;28;20313;-96
2021/01/07 09:51:57;;;;;;;6.83;3.77;;;;;;;10.17;100.00;96202.94;4962366;29;20198;-95
2021/01/07 09:54:24;;;;;;;36.67;25.47;;;;;;;10.23;100.00;96182.13;4959045;28;20194;-96
2021/01/07 09:56:54;;;;;;;8.70;6.27;;;;;;;10.35;100.00;96190.56;4968109;28;20201;-96
2021/01/07 09:59:22;;;;;;;22.07;14.07;;;;;;;10.46;100.00;96198.16;4973488;28;20185;-95
2021/01/07 10:01:51;;;;;;;19.27;11.57;;;;;;;10.34;100.00;96194.16;4964533;28;20710;-96
2021/01/07 10:04:19;;;;;;;9.77;6.37;;;;;;;10.36;100.00;96194.03;4962629;28;20198;-96
2021/01/07 10:06:47;;;;;;;13.37;5.00;;;;;;;10.37;100.00;96185.16;4967943;28;20208;-95
2021/01/07 10:09:14;;;;;;;6.90;5.47;;;;;;;10.57;100.00;96173.41;4967889;29;20577;-96
2021/01/07 10:11:51;;;;;;;13.70;11.30;;;;;;;10.47;100.00;96168.28;4972602;28;20205;-96
2021/01/07 10:14:27;;;;;;;12.40;9.83;;;;;;;10.58;100.00;96172.41;4969351;28;20209;-96
2021/01/07 10:16:55;;;;;;;10.23;7.80;;;;;;;10.39;100.00;96173.50;4987804;28;20204;-96
2021/01/07 10:19:24;;;;;;;9.10;7.70;;;;;;;10.42;100.00;96169.72;4981362;28;20193;-96
2021/01/07 10:21:59;;;;;;;11.13;6.17;;;;;;;10.35;100.00;96181.84;4984902;28;20216;-96
2021/01/07 10:24:27;;;;;;;7.20;4.57;;;;;;;10.18;100.00;96171.28;4990819;28;20212;-96
2021/01/07 10:26:59;;;;;;;39.33;23.73;;;;;;;10.24;100.00;96168.00;4989957;28;20201;-96
2021/01/07 10:29:29;;;;;;;16.37;12.53;;;;;;;10.20;100.00;96171.94;4983494;28;20198;-94
2021/01/07 10:32:03;;;;;;;10.87;9.10;;;;;;;10.30;100.00;96166.56;4982538;28;20681;-95
2021/01/07 10:34:31;;;;;;;10.60;7.67;;;;;;;10.29;100.00;96164.09;4984670;28;20244;-96
2021/01/07 10:36:58;;;;;;;8.03;7.13;;;;;;;10.30;100.00;96152.63;4989471;28;20263;-95
2021/01/07 10:39:26;;;;;;;6.17;4.10;;;;;;;10.36;100.00;96154.63;4990264;28;20221;-96
2021/01/07 10:41:57;;;;;;;6.20;4.73;;;;;;;10.36;100.00;96149.38;4992955;28;20224;-95
2021/01/07 10:44:29;;;;;;;8.33;5.43;;;;;;;10.23;100.00;96155.03;4989886;28;20228;-96
2021/01/07 10:47:00;;;;;;;9.37;6.53;;;;;;;10.14;100.00;96162.03;4995200;28;20169;-96
2021/01/07 10:52:27;;;;;;;7.60;6.70;;;;;;;10.05;100.00;96168.25;4937404;29;20771;-95
2021/01/07 10:55:07;;;;;;;9.13;7.93;;;;;;;10.02;100.00;96165.94;4938470;29;20245;-94
2021/01/07 10:58:13;;;;;;;18.70;14.77;;;;;;;9.98;100.00;96164.63;4941606;29;20209;-95
2021/01/07 11:00:49;;;;;;;10.47;7.93;;;;;;;9.91;100.00;96161.81;4940783;29;20206;-95
2021/01/07 11:03:38;;;;;;;10.97;8.27;;;;;;;9.92;100.00;96154.75;4937988;28;20260;-95
2021/01/07 11:06:10;;;;;;;9.60;7.40;;;;;;;10.13;100.00;96147.28;4938609;29;20184;-95
2021/01/07 11:08:43;;;;;;;10.10;8.57;;;;;;;10.30;100.00;96144.75;4935943;28;20211;-95
2021/01/07 11:11:16;;;;;;;8.70;7.80;;;;;;;10.57;100.00;96139.22;4940940;28;20206;-95
2021/01/07 11:13:56;;;;;;;6.80;5.77;;;;;;;10.83;100.00;96143.53;4929108;28;20200;-95
2021/01/07 11:16:37;;;;;;;4.57;3.87;;;;;;;10.61;100.00;96148.44;4924242;28;20206;-94
2021/01/07 11:19:08;;;;;;;6.27;3.97;;;;;;;10.63;100.00;96146.47;4922040;29;20645;-95
2021/01/07 11:21:45;;;;;;;4.67;2.57;;;;;;;10.57;100.00;96141.03;4927565;29;20619;-95
2021/01/07 11:24:13;;;;;;;2.33;2.03;;;;;;;10.58;100.00;96146.13;4925648;28;20227;-95
2021/01/07 11:26:41;;;;;;;3.00;2.80;;;;;;;10.59;100.00;96137.25;4919273;29;20199;-95
2021/01/07 11:29:08;;;;;;;3.33;2.30;;;;;;;10.78;100.00;96143.22;4920665;28;20672;-95
2021/01/07 11:31:39;;;;;;;4.00;2.23;;;;;;;10.75;100.00;96152.22;4936564;28;20367;-96
2021/01/07 11:34:07;;;;;;;2.37;2.17;;;;;;;10.68;100.00;96149.44;4937700;29;20191;-95
2021/01/07 11:36:42;;;;;;;4.27;2.20;;;;;;;10.75;100.00;96138.28;4939086;29;20207;-95
2021/01/07 11:39:16;;;;;;;6.40;1.93;;;;;;;10.76;100.00;96145.16;4940596;29;20186;-95
2021/01/07 11:41:51;;;;;;;4.80;2.20;;;;;;;10.99;100.00;96126.94;4937730;28;20214;-96
2021/01/07 11:44:31;;;;;;;2.67;2.47;;;;;;;11.05;100.00;96134.16;4936592;28;20202;-95